Alplaus, NY

8:32 PM EST on December 09, 2016 (GMT -0500)
GE Volunteers | | Change Station

Elev 350 ft 42.83 °N, 73.88 °W | Updated 23 seconds ago

Partly Cloudy
Partly Cloudy
21.6 °F
Feels Like 22 °F
N
0.0
Wind Variable Wind from SW
Gusts 2.0 mph

Today
High -- | Low -- °F
--% Chance of Precip.
Yesterday
High -- | Low -- °F
Precip. -- in
Pressure 30.25 in
Visibility 10.0 miles
Clouds Few 4100 ft
Few 5500 ft
Windchill 22 °F
Dew Point 15 °F
Humidity 77%
Rainfall 0.00 in
Snow Depth Not available.
7:15 AM 4:21 PM
Waxing Gibbous, 79% visible
METAR KALB 100051Z 29008KT 10SM FEW041 FEW055 M04/M10 A3023 RMK AO2 SLP242 T10441100
Pressure 30.25 in
Visibility 10.0 miles
Clouds Few 4100 ft
Few 5500 ft
Windchill 22 °F
Dew Point 15 °F
Humidity 77%
Rainfall 0.00 in
Snow Depth Not available.
7:15 AM 4:21 PM
Waxing Gibbous, 79% visible
METAR KALB 100051Z 29008KT 10SM FEW041 FEW055 M04/M10 A3023 RMK AO2 SLP242 T10441100

10-Day Weather Forecast

Almanac

Astronomy

Dec. 09, 2016 Rise Set
Actual Time
Civil Twilight
Nautical Twilight
Astronomical Twilight
Moon
Length of Visible Light
Length of Day
Tomorrow will be .
, % of the Moon is Illuminated

Today's Extremes

State Highs State Lows

Community

WunderPhotos

Upload Photos

1,956,534 photos uploaded!

WunderBlog® & News

Nearby

Air Quality

  Air Quality AQ Index Pollutant
Not available.

Snow Depth

Station Depth Elevation

Earthquake Activity

City Distance Mag. Time & Date
Minimum magnitude displayed is 2.5.

Coastal Water Temperatures

Place Temperature

Stations

Nearby Weather Stations

Station Location Temp. Windchill Dew Point Humidity Wind Precip. Elev Updated Type
                   

Watches & Warnings

There are currently no watches in effect.